createdAt,value
2018-12-15T00:01:58.616Z,-1.00
2018-12-15T00:04:26.625Z,-1.00
2018-12-15T00:06:54.587Z,-1.00
2018-12-15T00:09:22.637Z,-1.00
2018-12-15T00:11:50.563Z,-1.10
2018-12-15T00:14:18.502Z,-1.00
2018-12-15T00:16:47.629Z,-1.00
2018-12-15T00:19:15.390Z,-0.90
2018-12-15T00:21:43.536Z,-0.90
2018-12-15T00:24:11.825Z,-0.90
2018-12-15T00:26:40.021Z,-0.90
2018-12-15T00:29:07.865Z,-1.00
2018-12-15T00:31:35.861Z,-1.00
2018-12-15T00:34:04.329Z,-1.10
2018-12-15T00:36:32.189Z,-1.10
2018-12-15T00:39:01.328Z,-1.10
2018-12-15T00:41:30.211Z,-1.10
2018-12-15T00:43:58.123Z,-1.10
2018-12-15T00:46:26.158Z,-1.10
2018-12-15T00:48:54.094Z,-1.00
2018-12-15T00:51:22.345Z,-1.00
2018-12-15T00:53:50.338Z,-1.00
2018-12-15T00:56:18.410Z,-1.10
2018-12-15T00:58:47.356Z,-1.10
2018-12-15T01:01:16.105Z,-1.10
2018-12-15T01:03:44.560Z,-1.00
2018-12-15T01:06:13.818Z,-1.00
2018-12-15T01:08:41.850Z,-1.00
2018-12-15T01:11:09.990Z,-1.00
2018-12-15T01:13:38.022Z,-1.00
2018-12-15T01:16:05.851Z,-1.00
2018-12-15T01:18:33.680Z,-1.00
2018-12-15T01:21:01.760Z,-1.00
2018-12-15T01:23:29.542Z,-1.10
2018-12-15T01:25:57.474Z,-1.10
2018-12-15T01:28:26.539Z,-1.10
2018-12-15T01:30:54.422Z,-1.10
2018-12-15T01:33:23.417Z,-1.00
2018-12-15T01:35:51.756Z,-1.00
2018-12-15T01:38:19.787Z,-1.00
2018-12-15T01:40:47.718Z,-1.00
2018-12-15T01:43:15.548Z,-1.00
2018-12-15T01:45:45.007Z,-1.00
2018-12-15T01:48:12.950Z,-1.00
2018-12-15T01:50:40.885Z,-1.00
2018-12-15T01:53:08.652Z,-1.10
2018-12-15T01:55:36.541Z,-1.10
2018-12-15T01:58:04.396Z,-1.10
2018-12-15T02:00:32.460Z,-1.10
2018-12-15T02:03:00.553Z,-1.10
2018-12-15T02:05:28.580Z,-1.10
2018-12-15T02:07:56.402Z,-1.10
2018-12-15T02:10:24.331Z,-1.10
2018-12-15T02:12:52.286Z,-1.10
2018-12-15T02:15:20.189Z,-1.10
2018-12-15T02:17:48.018Z,-1.10
2018-12-15T02:20:16.157Z,-1.10
2018-12-15T02:22:44.191Z,-1.10
2018-12-15T02:25:12.111Z,-1.10
2018-12-15T02:27:40.150Z,-1.20
2018-12-15T02:30:08.433Z,-1.10
2018-12-15T02:32:36.410Z,-1.10
2018-12-15T02:35:04.968Z,-1.10
2018-12-15T02:37:35.144Z,-1.10
2018-12-15T02:40:03.251Z,-1.10
2018-12-15T02:42:31.217Z,-1.10
2018-12-15T02:44:59.542Z,-1.10
2018-12-15T02:47:27.471Z,-1.10
2018-12-15T02:49:55.402Z,-1.10
2018-12-15T02:52:24.574Z,-1.00
2018-12-15T02:54:52.405Z,-1.00
2018-12-15T02:57:20.224Z,-1.00
2018-12-15T02:59:48.258Z,-1.10
2018-12-15T03:02:16.191Z,-1.10
2018-12-15T03:04:44.937Z,-1.10
2018-12-15T03:07:12.770Z,-1.10
2018-12-15T03:09:40.597Z,-1.10
2018-12-15T03:12:08.428Z,-1.00
2018-12-15T03:14:36.359Z,-1.10
2018-12-15T03:17:05.417Z,-1.10
2018-12-15T03:19:33.248Z,-1.10
2018-12-15T03:22:02.131Z,-1.20
2018-12-15T03:24:30.947Z,-1.20
2018-12-15T03:26:58.679Z,-1.10
2018-12-15T03:29:27.127Z,-1.00
2018-12-15T03:31:54.962Z,-1.00
2018-12-15T03:34:22.892Z,-1.00
2018-12-15T03:36:51.029Z,-1.00
2018-12-15T03:39:18.863Z,-1.10
2018-12-15T03:41:46.905Z,-1.10
2018-12-15T03:44:14.934Z,-1.10
2018-12-15T03:46:42.760Z,-1.10
2018-12-15T03:49:10.948Z,-1.10
2018-12-15T03:51:38.922Z,-1.10
2018-12-15T03:54:06.856Z,-1.10
2018-12-15T03:56:34.679Z,-1.20
2018-12-15T03:59:02.617Z,-1.20
2018-12-15T04:01:31.194Z,-1.20
2018-12-15T04:03:59.085Z,-1.20
2018-12-15T04:06:27.373Z,-1.20
2018-12-15T04:08:56.490Z,-1.20
2018-12-15T04:11:25.123Z,-1.20
2018-12-15T04:13:53.056Z,-1.20
2018-12-15T04:16:21.598Z,-1.10
2018-12-15T04:18:49.427Z,-1.10
2018-12-15T04:21:17.353Z,-1.20
2018-12-15T04:23:45.287Z,-1.10
2018-12-15T04:26:14.034Z,-1.10
2018-12-15T04:28:42.065Z,-1.20
2018-12-15T04:31:09.770Z,-1.20
2018-12-15T04:33:38.742Z,-1.10
2018-12-15T04:36:12.353Z,-1.20
2018-12-15T04:38:40.670Z,-1.10
2018-12-15T04:41:08.554Z,-1.10
2018-12-15T04:43:36.406Z,-1.10
2018-12-15T04:46:04.288Z,-1.10
2018-12-15T04:48:31.992Z,-1.10
2018-12-15T04:51:00.010Z,-1.20
2018-12-15T04:53:28.399Z,-1.20
2018-12-15T04:55:56.367Z,-1.20
2018-12-15T04:58:24.299Z,-1.10
2018-12-15T05:00:52.232Z,-1.10
2018-12-15T05:03:20.163Z,-1.20
2018-12-15T05:05:47.997Z,-1.10
2018-12-15T05:08:17.259Z,-1.10
2018-12-15T05:10:45.368Z,-1.10
2018-12-15T05:13:13.326Z,-1.10
2018-12-15T05:15:41.262Z,-1.10
2018-12-15T05:18:09.376Z,-1.20
2018-12-15T05:20:38.359Z,-1.10
2018-12-15T05:23:06.169Z,-1.20
2018-12-15T05:25:33.894Z,-1.20
2018-12-15T05:28:01.723Z,-1.20
2018-12-15T05:30:29.649Z,-1.10
2018-12-15T05:32:57.684Z,-1.20
2018-12-15T05:35:26.201Z,-1.20
2018-12-15T05:37:54.158Z,-1.20
2018-12-15T05:40:22.098Z,-1.20
2018-12-15T05:42:49.924Z,-1.20
2018-12-15T05:45:18.065Z,-1.30
2018-12-15T05:47:45.995Z,-1.30
2018-12-15T05:50:13.924Z,-1.20
2018-12-15T05:52:41.951Z,-1.20
2018-12-15T05:55:09.706Z,-1.20
2018-12-15T05:57:37.613Z,-1.20
2018-12-15T06:00:08.258Z,-1.20
2018-12-15T06:02:36.536Z,-1.20
2018-12-15T06:05:08.648Z,-1.20
2018-12-15T06:07:36.483Z,-1.20
2018-12-15T06:10:04.599Z,-1.20
2018-12-15T06:12:32.535Z,-1.20
2018-12-15T06:15:00.364Z,-1.20
2018-12-15T06:17:28.296Z,-1.20
2018-12-15T06:19:56.121Z,-1.20
2018-12-15T06:22:23.948Z,-1.20
2018-12-15T06:24:51.773Z,-1.20
2018-12-15T06:27:20.569Z,-1.20
2018-12-15T06:29:48.451Z,-1.20
2018-12-15T06:32:16.786Z,-1.20
2018-12-15T06:34:44.821Z,-1.20
2018-12-15T06:37:12.752Z,-1.20
2018-12-15T06:39:40.997Z,-1.20
2018-12-15T06:42:08.916Z,-1.20
2018-12-15T06:44:36.747Z,-1.20
2018-12-15T06:47:04.498Z,-1.20
2018-12-15T06:49:32.437Z,-1.20
2018-12-15T06:52:00.632Z,-1.20
2018-12-15T06:54:29.896Z,-1.20
2018-12-15T06:56:57.829Z,-1.20
2018-12-15T06:59:25.857Z,-1.20
2018-12-15T07:01:54.303Z,-1.20
2018-12-15T07:04:22.125Z,-1.20
2018-12-15T07:06:50.117Z,-1.20
2018-12-15T07:09:18.013Z,-1.20
2018-12-15T07:11:45.937Z,-1.20
2018-12-15T07:14:14.410Z,-1.20
2018-12-15T07:16:42.289Z,-1.20
2018-12-15T07:19:10.218Z,-1.20
2018-12-15T07:21:38.104Z,-1.20
2018-12-15T07:24:06.808Z,-1.20
2018-12-15T07:26:35.773Z,-1.20
2018-12-15T07:29:03.694Z,-1.20
2018-12-15T07:31:31.514Z,-1.20
2018-12-15T07:34:00.029Z,-1.20
2018-12-15T07:36:27.841Z,-1.20
2018-12-15T07:38:55.719Z,-1.20
2018-12-15T07:41:24.065Z,-1.20
2018-12-15T07:43:52.765Z,-1.10
2018-12-15T07:46:21.048Z,-1.10
2018-12-15T07:48:51.505Z,-1.10
2018-12-15T07:51:20.497Z,-1.00
2018-12-15T07:53:48.419Z,-1.00
2018-12-15T07:56:17.577Z,-1.10
2018-12-15T07:58:45.508Z,-1.10
2018-12-15T08:01:13.542Z,-1.00
2018-12-15T08:03:41.484Z,-1.00
2018-12-15T08:06:09.415Z,-0.90
2018-12-15T08:08:37.350Z,-1.00
2018-12-15T08:11:10.776Z,-0.90
2018-12-15T08:13:40.804Z,-0.90
2018-12-15T08:16:09.562Z,-0.90
2018-12-15T08:18:37.711Z,-0.80
2018-12-15T08:21:05.940Z,-0.80
2018-12-15T08:23:34.393Z,-0.80
2018-12-15T08:26:02.325Z,-0.80
2018-12-15T08:28:30.262Z,-0.70
2018-12-15T08:30:58.197Z,-0.70
2018-12-15T08:33:26.030Z,-0.70
2018-12-15T08:35:53.970Z,-0.60
2018-12-15T08:38:22.007Z,-0.60
2018-12-15T08:40:50.148Z,-0.60
2018-12-15T08:43:17.980Z,-0.60
2018-12-15T08:45:45.916Z,-0.60
2018-12-15T08:48:14.154Z,-0.60
2018-12-15T08:50:42.298Z,-0.60
2018-12-15T08:53:10.117Z,-0.60
2018-12-15T08:55:38.104Z,-0.60
2018-12-15T08:58:05.859Z,-0.50
2018-12-15T09:00:33.898Z,-0.50
2018-12-15T09:03:01.935Z,-0.50
2018-12-15T09:05:29.974Z,-0.40
2018-12-15T09:07:59.088Z,-0.40
2018-12-15T09:10:27.071Z,-0.40
2018-12-15T09:12:54.903Z,-0.40
2018-12-15T09:15:22.837Z,-0.30
2018-12-15T09:17:50.670Z,-0.30
2018-12-15T09:20:18.623Z,-0.30
2018-12-15T09:22:46.645Z,-0.40
2018-12-15T09:25:14.682Z,-0.30
2018-12-15T09:27:42.622Z,-0.30
2018-12-15T09:30:10.763Z,-0.30
2018-12-15T09:32:38.593Z,-0.20
2018-12-15T09:35:06.820Z,-0.20
2018-12-15T09:37:35.899Z,-0.20
2018-12-15T09:40:04.431Z,-0.30
2018-12-15T09:42:33.098Z,-0.30
2018-12-15T09:45:01.448Z,-0.30
2018-12-15T09:47:30.547Z,-0.30
2018-12-15T09:49:59.985Z,-0.30
2018-12-15T09:52:28.083Z,-0.30
2018-12-15T09:54:56.274Z,-0.30
2018-12-15T09:57:25.018Z,-0.20
2018-12-15T09:59:53.618Z,-0.20
2018-12-15T10:02:21.714Z,-0.20
2018-12-15T10:04:49.746Z,-0.10
2018-12-15T10:07:17.578Z,-0.20
2018-12-15T10:09:45.512Z,-0.30
2018-12-15T10:12:13.560Z,-0.20
2018-12-15T10:14:41.482Z,-0.30
2018-12-15T10:17:09.525Z,-0.30
2018-12-15T10:19:38.145Z,-0.30
2018-12-15T10:22:05.883Z,-0.20
2018-12-15T10:24:34.431Z,-0.10
2018-12-15T10:27:02.480Z,-0.10
2018-12-15T10:29:37.396Z,-0.10
2018-12-15T10:32:10.739Z,-0.20
2018-12-15T10:34:38.593Z,-0.30
2018-12-15T10:37:06.739Z,-0.40
2018-12-15T10:39:34.559Z,-0.40
2018-12-15T10:42:02.699Z,-0.40
2018-12-15T10:44:30.937Z,-0.30
2018-12-15T10:46:58.971Z,-0.30
2018-12-15T10:49:30.698Z,-0.20
2018-12-15T10:51:57.505Z,-0.20
2018-12-15T10:54:25.841Z,-0.10
2018-12-15T10:56:55.173Z,-0.10
2018-12-15T10:59:23.988Z,-0.20
2018-12-15T11:01:52.380Z,-0.30
2018-12-15T11:04:21.993Z,-0.40
2018-12-15T11:06:50.033Z,-0.40
2018-12-15T11:09:18.476Z,-0.40
2018-12-15T11:11:46.414Z,-0.20
2018-12-15T11:14:14.506Z,-0.10
2018-12-15T11:16:42.697Z,-0.10
2018-12-15T11:19:10.736Z,-0.10
2018-12-15T11:21:38.872Z,-0.10
2018-12-15T11:24:06.804Z,-0.10
2018-12-15T11:26:34.703Z,-0.20
2018-12-15T11:29:02.795Z,-0.20
2018-12-15T11:31:31.004Z,-0.20
2018-12-15T11:33:59.153Z,-0.10
2018-12-15T11:36:27.390Z,-0.10
2018-12-15T11:38:55.773Z,-0.20
2018-12-15T11:41:23.557Z,-0.10
2018-12-15T11:43:51.658Z,-0.20
2018-12-15T11:46:19.724Z,-0.10
2018-12-15T11:48:47.752Z,-0.20
2018-12-15T11:51:15.791Z,-0.20
2018-12-15T11:53:43.795Z,-0.20
2018-12-15T11:56:11.744Z,-0.20
2018-12-15T11:58:40.697Z,-0.20
2018-12-15T12:01:08.524Z,-0.20
2018-12-15T12:03:51.841Z,-0.10
2018-12-15T12:06:19.746Z,-0.10
2018-12-15T12:08:47.772Z,-0.20
2018-12-15T12:11:16.313Z,-0.20
2018-12-15T12:13:44.145Z,-0.30
2018-12-15T12:16:11.967Z,-0.20
2018-12-15T12:18:40.509Z,-0.30
2018-12-15T12:21:08.254Z,-0.20
2018-12-15T12:23:36.262Z,-0.20
2018-12-15T12:26:04.305Z,-0.20
2018-12-15T12:28:32.062Z,-0.30
2018-12-15T12:30:59.931Z,-0.30
2018-12-15T12:33:28.412Z,-0.30
2018-12-15T12:35:56.481Z,-0.30
2018-12-15T12:38:24.891Z,-0.30
2018-12-15T12:40:52.977Z,-0.20
2018-12-15T12:43:21.064Z,-0.20
2018-12-15T12:45:48.896Z,-0.20
2018-12-15T12:48:16.733Z,-0.30
2018-12-15T12:50:44.662Z,-0.20
2018-12-15T12:53:12.597Z,-0.30
2018-12-15T12:55:40.951Z,-0.20
2018-12-15T12:58:09.119Z,-0.20
2018-12-15T13:00:37.429Z,-0.20
2018-12-15T13:03:05.655Z,-0.20
2018-12-15T13:05:33.604Z,-0.30
2018-12-15T13:08:01.434Z,-0.40
2018-12-15T13:10:29.880Z,-0.30
2018-12-15T13:13:00.248Z,-0.30
2018-12-15T13:15:28.227Z,-0.30
2018-12-15T13:17:56.140Z,-0.30
2018-12-15T13:20:24.175Z,-0.30
2018-12-15T13:22:52.120Z,-0.30
2018-12-15T13:25:20.146Z,-0.30
2018-12-15T13:27:48.184Z,-0.40
2018-12-15T13:30:16.937Z,-0.40
2018-12-15T13:32:45.483Z,-0.30
2018-12-15T13:35:14.548Z,-0.30
2018-12-15T13:37:42.379Z,-0.40
2018-12-15T13:40:11.588Z,-0.40
2018-12-15T13:42:42.381Z,-0.40
2018-12-15T13:45:10.537Z,-0.30
2018-12-15T13:47:38.917Z,-0.30
2018-12-15T13:50:10.300Z,-0.30
2018-12-15T13:52:38.880Z,-0.40
2018-12-15T13:55:06.917Z,-0.40
2018-12-15T13:57:34.687Z,-0.40
2018-12-15T14:00:03.001Z,-0.40
2018-12-15T14:02:30.935Z,-0.40
2018-12-15T14:04:58.820Z,-0.40
2018-12-15T14:07:26.794Z,-0.50
2018-12-15T14:09:54.936Z,-0.40
2018-12-15T14:12:24.299Z,-0.50
2018-12-15T14:14:54.262Z,-0.60
2018-12-15T14:17:22.459Z,-0.60
2018-12-15T14:19:50.530Z,-0.60
2018-12-15T14:22:18.551Z,-0.60
2018-12-15T14:24:47.822Z,-0.60
2018-12-15T14:27:19.024Z,-0.60
2018-12-15T14:29:47.349Z,-0.50
2018-12-15T14:32:15.297Z,-0.60
2018-12-15T14:34:50.029Z,-0.50
2018-12-15T14:37:33.576Z,-0.60
2018-12-15T14:40:10.241Z,-0.60
2018-12-15T14:42:53.966Z,-0.70
2018-12-15T14:45:22.086Z,-0.60
2018-12-15T14:47:50.316Z,-0.70
2018-12-15T14:50:23.365Z,-0.80
2018-12-15T14:52:50.410Z,-0.80
2018-12-15T14:55:18.649Z,-0.80
2018-12-15T14:57:47.762Z,-0.80
2018-12-15T15:00:16.014Z,-0.80
2018-12-15T15:02:45.119Z,-0.80
2018-12-15T15:05:13.376Z,-0.80
2018-12-15T15:07:41.673Z,-0.80
2018-12-15T15:10:10.317Z,-0.80
2018-12-15T15:12:38.351Z,-0.90
2018-12-15T15:15:07.178Z,-0.90
2018-12-15T15:17:35.253Z,-0.90
2018-12-15T15:20:04.208Z,-0.90
2018-12-15T15:22:32.204Z,-0.90
2018-12-15T15:25:00.751Z,-0.90
2018-12-15T15:27:29.309Z,-1.00
2018-12-15T15:29:57.604Z,-0.90
2018-12-15T15:32:26.225Z,-0.90
2018-12-15T15:34:54.577Z,-1.00
2018-12-15T15:37:23.584Z,-0.90
2018-12-15T15:39:51.642Z,-1.00
2018-12-15T15:42:20.197Z,-1.00
2018-12-15T15:44:48.564Z,-0.90
2018-12-15T15:47:16.890Z,-0.90
2018-12-15T15:49:45.290Z,-0.90
2018-12-15T15:52:18.082Z,-0.90
2018-12-15T15:54:46.828Z,-0.90
2018-12-15T15:57:16.324Z,-1.00
2018-12-15T15:59:44.645Z,-0.90
2018-12-15T16:02:13.185Z,-0.90
2018-12-15T16:04:41.320Z,-0.90
2018-12-15T16:07:09.834Z,-1.00
2018-12-15T16:09:44.688Z,-1.00
2018-12-15T16:12:08.629Z,-1.00
2018-12-15T16:14:36.940Z,-1.00
2018-12-15T16:17:05.383Z,-1.00
2018-12-15T16:19:33.428Z,-1.00
2018-12-15T16:22:02.148Z,-1.00
2018-12-15T16:24:30.652Z,-1.00
2018-12-15T16:26:59.790Z,-1.00
2018-12-15T16:29:28.425Z,-1.00
2018-12-15T16:31:56.881Z,-1.00
2018-12-15T16:34:26.731Z,-1.00
2018-12-15T16:36:55.429Z,-1.00
2018-12-15T16:39:25.131Z,-1.00
2018-12-15T16:41:53.638Z,-1.00
2018-12-15T16:44:22.012Z,-1.10
2018-12-15T16:46:50.543Z,-1.10
2018-12-15T16:49:18.777Z,-1.10
2018-12-15T16:51:46.929Z,-1.10
2018-12-15T16:54:14.534Z,-1.10
2018-12-15T16:56:42.856Z,-1.10
2018-12-15T16:59:11.553Z,-1.10
2018-12-15T17:01:39.837Z,-1.10
2018-12-15T17:04:08.234Z,-1.10
2018-12-15T17:06:37.284Z,-1.10
2018-12-15T17:09:08.035Z,-1.10
2018-12-15T17:11:36.454Z,-1.10
2018-12-15T17:14:04.659Z,-1.10
2018-12-15T17:16:33.235Z,-1.10
2018-12-15T17:19:01.789Z,-1.10
2018-12-15T17:21:29.974Z,-1.10
2018-12-15T17:23:58.347Z,-1.10
2018-12-15T17:26:26.456Z,-1.10
2018-12-15T17:28:55.278Z,-1.10
2018-12-15T17:31:23.850Z,-1.10
2018-12-15T17:33:53.078Z,-1.10
2018-12-15T17:36:21.342Z,-1.20
2018-12-15T17:38:49.950Z,-1.20
2018-12-15T17:41:18.111Z,-1.20
2018-12-15T17:43:47.421Z,-1.20
2018-12-15T17:46:15.633Z,-1.20
2018-12-15T17:48:45.502Z,-1.20
2018-12-15T17:51:13.924Z,-1.20
2018-12-15T17:53:42.376Z,-1.20
2018-12-15T17:56:10.386Z,-1.20
2018-12-15T17:58:39.070Z,-1.20
2018-12-15T18:01:07.893Z,-1.20
2018-12-15T18:03:36.339Z,-1.20
2018-12-15T18:06:04.352Z,-1.20
2018-12-15T18:08:33.214Z,-1.20
2018-12-15T18:11:01.944Z,-1.20
2018-12-15T18:13:30.577Z,-1.20
2018-12-15T18:15:58.902Z,-1.20
2018-12-15T18:18:27.380Z,-1.20
2018-12-15T18:20:56.024Z,-1.20
2018-12-15T18:23:24.660Z,-1.20
2018-12-15T18:25:53.147Z,-1.20
2018-12-15T18:28:21.824Z,-1.20
2018-12-15T18:30:50.446Z,-1.20
2018-12-15T18:33:19.435Z,-1.20
2018-12-15T18:35:47.842Z,-1.20
2018-12-15T18:38:18.207Z,-1.20
2018-12-15T18:40:46.990Z,-1.20
2018-12-15T18:43:16.593Z,-1.20
2018-12-15T18:45:45.127Z,-1.20
2018-12-15T18:48:13.923Z,-1.20
2018-12-15T18:50:42.314Z,-1.20
2018-12-15T18:53:10.712Z,-1.20
2018-12-15T18:55:39.475Z,-1.30
2018-12-15T18:58:11.153Z,-1.30
2018-12-15T19:00:40.029Z,-1.30
2018-12-15T19:03:08.595Z,-1.30
2018-12-15T19:05:36.996Z,-1.30
2018-12-15T19:08:05.293Z,-1.30
2018-12-15T19:10:33.445Z,-1.30
2018-12-15T19:13:02.002Z,-1.30
2018-12-15T19:15:31.416Z,-1.30
2018-12-15T19:18:01.432Z,-1.30
2018-12-15T19:20:29.978Z,-1.30
2018-12-15T19:22:58.455Z,-1.30
2018-12-15T19:25:26.917Z,-1.30
2018-12-15T19:27:55.394Z,-1.30
2018-12-15T19:30:23.750Z,-1.30
2018-12-15T19:32:52.289Z,-1.30
2018-12-15T19:35:20.869Z,-1.30
2018-12-15T19:37:49.313Z,-1.30
2018-12-15T19:40:18.101Z,-1.30
2018-12-15T19:42:46.873Z,-1.30
2018-12-15T19:45:15.411Z,-1.30
2018-12-15T19:47:44.004Z,-1.30
2018-12-15T19:50:12.611Z,-1.30
2018-12-15T19:52:41.367Z,-1.30
2018-12-15T19:55:10.228Z,-1.20
2018-12-15T19:57:38.990Z,-1.20
2018-12-15T20:00:08.599Z,-1.30
2018-12-15T20:02:37.007Z,-1.30
2018-12-15T20:05:05.485Z,-1.30
2018-12-15T20:07:33.592Z,-1.30
2018-12-15T20:10:02.971Z,-1.30
2018-12-15T20:12:31.293Z,-1.30
2018-12-15T20:15:01.084Z,-1.30
2018-12-15T20:17:29.794Z,-1.30
2018-12-15T20:19:58.623Z,-1.30
2018-12-15T20:22:26.991Z,-1.30
2018-12-15T20:24:55.886Z,-1.30
2018-12-15T20:27:24.681Z,-1.30
2018-12-15T20:29:53.389Z,-1.30
2018-12-15T20:32:21.780Z,-1.30
2018-12-15T20:34:50.322Z,-1.20
2018-12-15T20:37:20.336Z,-1.30
2018-12-15T20:39:48.990Z,-1.30
2018-12-15T20:42:18.017Z,-1.30
2018-12-15T20:44:46.775Z,-1.30
2018-12-15T20:47:15.288Z,-1.30
2018-12-15T20:49:43.803Z,-1.30
2018-12-15T20:52:12.049Z,-1.30
2018-12-15T20:54:40.564Z,-1.30
2018-12-15T20:57:09.249Z,-1.30
2018-12-15T20:59:38.369Z,-1.30
2018-12-15T21:02:07.260Z,-1.30
2018-12-15T21:04:35.901Z,-1.30
2018-12-15T21:07:04.649Z,-1.30
2018-12-15T21:09:32.749Z,-1.30
2018-12-15T21:12:01.257Z,-1.30
2018-12-15T21:14:30.025Z,-1.30
2018-12-15T21:16:58.578Z,-1.30
2018-12-15T21:19:26.942Z,-1.30
2018-12-15T21:21:55.068Z,-1.30
2018-12-15T21:24:23.454Z,-1.30
2018-12-15T21:26:51.947Z,-1.40
2018-12-15T21:29:20.814Z,-1.40
2018-12-15T21:31:49.419Z,-1.40
2018-12-15T21:34:19.082Z,-1.40
2018-12-15T21:36:47.387Z,-1.40
2018-12-15T21:39:16.851Z,-1.40
2018-12-15T21:41:45.147Z,-1.40
2018-12-15T21:44:15.793Z,-1.40
2018-12-15T21:46:44.374Z,-1.40
2018-12-15T21:49:12.597Z,-1.40
2018-12-15T21:51:40.832Z,-1.40
2018-12-15T21:54:08.918Z,-1.40
2018-12-15T21:56:37.229Z,-1.40
2018-12-15T21:59:05.357Z,-1.40
2018-12-15T22:01:33.337Z,-1.40
2018-12-15T22:04:01.298Z,-1.50
2018-12-15T22:06:29.642Z,-1.50
2018-12-15T22:08:58.045Z,-1.50
2018-12-15T22:11:27.633Z,-1.50
2018-12-15T22:13:55.637Z,-1.50
2018-12-15T22:16:24.903Z,-1.50
2018-12-15T22:18:52.841Z,-1.50
2018-12-15T22:21:20.778Z,-1.50
2018-12-15T22:23:48.709Z,-1.50
2018-12-15T22:26:16.903Z,-1.50
2018-12-15T22:28:44.888Z,-1.50
2018-12-15T22:31:13.539Z,-1.60
2018-12-15T22:33:41.578Z,-1.50
2018-12-15T22:36:10.078Z,-1.50
2018-12-15T22:38:38.869Z,-1.50
2018-12-15T22:41:06.688Z,-1.50
2018-12-15T22:43:34.650Z,-1.50
2018-12-15T22:46:02.457Z,-1.50
2018-12-15T22:48:30.413Z,-1.50
2018-12-15T22:50:58.356Z,-1.60
2018-12-15T22:53:26.638Z,-1.60
2018-12-15T22:55:54.638Z,-1.60
2018-12-15T22:58:22.972Z,-1.50
2018-12-15T23:00:56.553Z,-1.50
2018-12-15T23:03:24.794Z,-1.50
2018-12-15T23:05:53.555Z,-1.50
2018-12-15T23:08:22.308Z,-1.60
2018-12-15T23:10:50.654Z,-1.70
2018-12-15T23:13:18.769Z,-1.80
2018-12-15T23:15:47.031Z,-2.00
2018-12-15T23:18:15.073Z,-2.10
2018-12-15T23:20:43.005Z,-2.20
2018-12-15T23:23:10.954Z,-2.30
2018-12-15T23:25:38.984Z,-2.40
2018-12-15T23:28:07.003Z,-2.50
2018-12-15T23:30:35.133Z,-2.60
2018-12-15T23:33:03.007Z,-2.70
2018-12-15T23:35:30.974Z,-2.70
2018-12-15T23:38:00.308Z,-2.70
2018-12-15T23:40:28.232Z,-2.80
2018-12-15T23:42:56.270Z,-2.80
2018-12-15T23:45:24.511Z,-2.90
2018-12-15T23:47:52.450Z,-2.90
2018-12-15T23:50:21.306Z,-3.00
2018-12-15T23:52:49.242Z,-3.10
2018-12-15T23:55:17.588Z,-3.20
2018-12-15T23:57:46.554Z,-3.30
